sensor_id;sensor_type;location;lat;lon;timestamp;temperature;humidity
40600;DHT22;26309;50.924;4.754;2023-09-07T00:00:20;18.50;99.90
40600;DHT22;26309;50.924;4.754;2023-09-07T00:02:46;18.30;99.90
40600;DHT22;26309;50.924;4.754;2023-09-07T00:05:12;18.30;99.90
40600;DHT22;26309;50.924;4.754;2023-09-07T00:07:39;18.20;99.90
40600;DHT22;26309;50.924;4.754;2023-09-07T00:10:05;18.10;99.90
40600;DHT22;26309;50.924;4.754;2023-09-07T00:12:31;18.10;99.90
40600;DHT22;26309;50.924;4.754;2023-09-07T00:14:57;18.20;99.90
40600;DHT22;26309;50.924;4.754;2023-09-07T00:17:24;18.20;99.90
40600;DHT22;26309;50.924;4.754;2023-09-07T00:19:50;18.20;99.90
40600;DHT22;26309;50.924;4.754;2023-09-07T00:22:17;18.20;99.90
40600;DHT22;26309;50.924;4.754;2023-09-07T00:24:44;18.20;99.90
40600;DHT22;26309;50.924;4.754;2023-09-07T00:27:10;18.10;99.90
40600;DHT22;26309;50.924;4.754;2023-09-07T00:29:38;18.10;99.90
40600;DHT22;26309;50.924;4.754;2023-09-07T00:32:04;18.00;99.90
40600;DHT22;26309;50.924;4.754;2023-09-07T00:34:30;17.90;99.90
40600;DHT22;26309;50.924;4.754;2023-09-07T00:36:56;17.90;99.90
40600;DHT22;26309;50.924;4.754;2023-09-07T00:39:22;17.80;99.90
40600;DHT22;26309;50.924;4.754;2023-09-07T00:41:49;17.80;99.90
40600;DHT22;26309;50.924;4.754;2023-09-07T00:44:15;17.80;99.90
40600;DHT22;26309;50.924;4.754;2023-09-07T00:46:42;17.70;99.90
40600;DHT22;26309;50.924;4.754;2023-09-07T00:49:11;17.60;99.90
40600;DHT22;26309;50.924;4.754;2023-09-07T00:51:37;17.60;99.90
40600;DHT22;26309;50.924;4.754;2023-09-07T00:54:03;17.70;99.90
40600;DHT22;26309;50.924;4.754;2023-09-07T00:56:29;17.70;99.90
40600;DHT22;26309;50.924;4.754;2023-09-07T00:58:56;17.60;99.90
40600;DHT22;26309;50.924;4.754;2023-09-07T01:01:25;17.50;99.90
40600;DHT22;26309;50.924;4.754;2023-09-07T01:03:51;17.40;99.90
40600;DHT22;26309;50.924;4.754;2023-09-07T01:06:33;17.20;99.90
40600;DHT22;26309;50.924;4.754;2023-09-07T01:09:10;17.30;99.90
40600;DHT22;26309;50.924;4.754;2023-09-07T01:11:38;17.30;99.90
40600;DHT22;26309;50.924;4.754;2023-09-07T01:14:04;17.20;99.90
40600;DHT22;26309;50.924;4.754;2023-09-07T01:16:31;17.20;99.90
40600;DHT22;26309;50.924;4.754;2023-09-07T01:19:01;17.20;99.90
40600;DHT22;26309;50.924;4.754;2023-09-07T01:21:34;17.20;99.90
40600;DHT22;26309;50.924;4.754;2023-09-07T01:24:01;17.10;99.90
40600;DHT22;26309;50.924;4.754;2023-09-07T01:26:28;17.10;99.90
40600;DHT22;26309;50.924;4.754;2023-09-07T01:28:54;17.10;99.90
40600;DHT22;26309;50.924;4.754;2023-09-07T01:31:20;17.10;99.90
40600;DHT22;26309;50.924;4.754;2023-09-07T01:33:46;17.10;99.90
40600;DHT22;26309;50.924;4.754;2023-09-07T01:36:12;17.10;99.90
40600;DHT22;26309;50.924;4.754;2023-09-07T01:38:38;17.00;99.90
40600;DHT22;26309;50.924;4.754;2023-09-07T01:41:04;16.90;99.90
40600;DHT22;26309;50.924;4.754;2023-09-07T01:43:29;16.90;99.90
40600;DHT22;26309;50.924;4.754;2023-09-07T01:45:55;16.90;99.90
40600;DHT22;26309;50.924;4.754;2023-09-07T01:48:21;17.00;99.90
40600;DHT22;26309;50.924;4.754;2023-09-07T01:50:47;16.90;99.90
40600;DHT22;26309;50.924;4.754;2023-09-07T01:53:17;17.00;99.90
40600;DHT22;26309;50.924;4.754;2023-09-07T01:55:43;17.00;99.90
40600;DHT22;26309;50.924;4.754;2023-09-07T01:58:09;16.90;99.90
40600;DHT22;26309;50.924;4.754;2023-09-07T02:00:38;16.90;99.90
40600;DHT22;26309;50.924;4.754;2023-09-07T02:03:06;17.00;99.90
40600;DHT22;26309;50.924;4.754;2023-09-07T02:05:32;17.00;99.90
40600;DHT22;26309;50.924;4.754;2023-09-07T02:07:58;16.90;99.90
40600;DHT22;26309;50.924;4.754;2023-09-07T02:10:24;16.90;99.90
40600;DHT22;26309;50.924;4.754;2023-09-07T02:12:50;16.90;99.90
40600;DHT22;26309;50.924;4.754;2023-09-07T02:15:18;16.90;99.90
40600;DHT22;26309;50.924;4.754;2023-09-07T02:17:46;16.80;99.90
40600;DHT22;26309;50.924;4.754;2023-09-07T02:20:12;16.80;99.90
40600;DHT22;26309;50.924;4.754;2023-09-07T02:22:38;16.80;99.90
40600;DHT22;26309;50.924;4.754;2023-09-07T02:25:05;16.70;99.90
40600;DHT22;26309;50.924;4.754;2023-09-07T02:27:32;16.70;99.90
40600;DHT22;26309;50.924;4.754;2023-09-07T02:29:58;16.60;99.90
40600;DHT22;26309;50.924;4.754;2023-09-07T02:32:24;16.60;99.90
40600;DHT22;26309;50.924;4.754;2023-09-07T02:34:49;16.50;99.90
40600;DHT22;26309;50.924;4.754;2023-09-07T02:37:15;16.50;99.90
40600;DHT22;26309;50.924;4.754;2023-09-07T02:39:42;16.50;99.90
40600;DHT22;26309;50.924;4.754;2023-09-07T02:42:08;16.50;99.90
40600;DHT22;26309;50.924;4.754;2023-09-07T02:44:34;16.60;99.90
40600;DHT22;26309;50.924;4.754;2023-09-07T02:46:59;16.50;99.90
40600;DHT22;26309;50.924;4.754;2023-09-07T02:49:25;16.60;99.90
40600;DHT22;26309;50.924;4.754;2023-09-07T02:51:51;16.50;99.90
40600;DHT22;26309;50.924;4.754;2023-09-07T02:54:17;16.50;99.90
40600;DHT22;26309;50.924;4.754;2023-09-07T02:56:43;16.40;99.90
40600;DHT22;26309;50.924;4.754;2023-09-07T02:59:09;16.40;99.90
40600;DHT22;26309;50.924;4.754;2023-09-07T03:01:35;16.30;99.90
40600;DHT22;26309;50.924;4.754;2023-09-07T03:04:00;16.30;99.90
40600;DHT22;26309;50.924;4.754;2023-09-07T03:06:27;16.30;99.90
40600;DHT22;26309;50.924;4.754;2023-09-07T03:08:52;16.30;99.90
40600;DHT22;26309;50.924;4.754;2023-09-07T03:11:18;16.30;99.90
40600;DHT22;26309;50.924;4.754;2023-09-07T03:13:44;16.20;99.90
40600;DHT22;26309;50.924;4.754;2023-09-07T03:16:10;16.20;99.90
40600;DHT22;26309;50.924;4.754;2023-09-07T03:18:36;16.10;99.90
40600;DHT22;26309;50.924;4.754;2023-09-07T03:21:03;16.10;99.90
40600;DHT22;26309;50.924;4.754;2023-09-07T03:23:31;16.20;99.90
40600;DHT22;26309;50.924;4.754;2023-09-07T03:25:58;16.10;99.90
40600;DHT22;26309;50.924;4.754;2023-09-07T03:28:24;16.10;99.90
40600;DHT22;26309;50.924;4.754;2023-09-07T03:30:54;16.10;99.90
40600;DHT22;26309;50.924;4.754;2023-09-07T03:33:21;16.00;99.90
40600;DHT22;26309;50.924;4.754;2023-09-07T03:35:47;16.00;99.90
40600;DHT22;26309;50.924;4.754;2023-09-07T03:38:13;16.00;99.90
40600;DHT22;26309;50.924;4.754;2023-09-07T03:40:39;16.00;99.90
40600;DHT22;26309;50.924;4.754;2023-09-07T03:43:09;15.90;99.90
40600;DHT22;26309;50.924;4.754;2023-09-07T03:45:35;16.00;99.90
40600;DHT22;26309;50.924;4.754;2023-09-07T03:48:04;16.00;99.90
40600;DHT22;26309;50.924;4.754;2023-09-07T03:50:30;16.10;99.90
40600;DHT22;26309;50.924;4.754;2023-09-07T03:52:56;16.20;99.90
40600;DHT22;26309;50.924;4.754;2023-09-07T03:55:22;16.20;99.90
40600;DHT22;26309;50.924;4.754;2023-09-07T03:57:48;16.10;99.90
40600;DHT22;26309;50.924;4.754;2023-09-07T04:00:14;15.90;99.90
40600;DHT22;26309;50.924;4.754;2023-09-07T04:02:40;15.80;99.90
40600;DHT22;26309;50.924;4.754;2023-09-07T04:05:06;15.70;99.90
40600;DHT22;26309;50.924;4.754;2023-09-07T04:07:33;15.70;99.90
40600;DHT22;26309;50.924;4.754;2023-09-07T04:09:58;15.70;99.90
40600;DHT22;26309;50.924;4.754;2023-09-07T04:12:25;15.70;99.90
40600;DHT22;26309;50.924;4.754;2023-09-07T04:14:51;15.70;99.90
40600;DHT22;26309;50.924;4.754;2023-09-07T04:17:17;15.60;99.90
40600;DHT22;26309;50.924;4.754;2023-09-07T04:19:43;15.60;99.90
40600;DHT22;26309;50.924;4.754;2023-09-07T04:22:10;15.60;99.90
40600;DHT22;26309;50.924;4.754;2023-09-07T04:24:39;15.60;99.90
40600;DHT22;26309;50.924;4.754;2023-09-07T04:27:06;15.60;99.90
40600;DHT22;26309;50.924;4.754;2023-09-07T04:29:32;15.50;99.90
40600;DHT22;26309;50.924;4.754;2023-09-07T04:31:58;15.50;99.90
40600;DHT22;26309;50.924;4.754;2023-09-07T04:34:24;15.50;99.90
40600;DHT22;26309;50.924;4.754;2023-09-07T04:36:50;15.50;99.90
40600;DHT22;26309;50.924;4.754;2023-09-07T04:39:16;15.50;99.90
40600;DHT22;26309;50.924;4.754;2023-09-07T04:41:42;15.50;99.90
40600;DHT22;26309;50.924;4.754;2023-09-07T04:44:08;15.40;99.90
40600;DHT22;26309;50.924;4.754;2023-09-07T04:46:34;15.40;99.90
40600;DHT22;26309;50.924;4.754;2023-09-07T04:49:00;15.40;99.90
40600;DHT22;26309;50.924;4.754;2023-09-07T04:51:26;15.30;99.90
40600;DHT22;26309;50.924;4.754;2023-09-07T04:53:52;15.30;99.90
40600;DHT22;26309;50.924;4.754;2023-09-07T04:56:17;15.30;99.90
40600;DHT22;26309;50.924;4.754;2023-09-07T04:58:44;15.30;99.90
40600;DHT22;26309;50.924;4.754;2023-09-07T05:01:11;15.20;99.90
40600;DHT22;26309;50.924;4.754;2023-09-07T05:03:38;15.20;99.90
40600;DHT22;26309;50.924;4.754;2023-09-07T05:06:27;15.10;99.90
40600;DHT22;26309;50.924;4.754;2023-09-07T05:09:03;15.10;99.90
40600;DHT22;26309;50.924;4.754;2023-09-07T05:11:29;15.30;99.90
40600;DHT22;26309;50.924;4.754;2023-09-07T05:13:55;15.50;99.90
40600;DHT22;26309;50.924;4.754;2023-09-07T05:16:21;15.60;99.90
40600;DHT22;26309;50.924;4.754;2023-09-07T05:18:47;15.50;99.90
40600;DHT22;26309;50.924;4.754;2023-09-07T05:21:14;15.50;99.90
40600;DHT22;26309;50.924;4.754;2023-09-07T05:23:40;15.50;99.90
40600;DHT22;26309;50.924;4.754;2023-09-07T05:26:06;15.50;99.90
40600;DHT22;26309;50.924;4.754;2023-09-07T05:28:32;15.50;99.90
40600;DHT22;26309;50.924;4.754;2023-09-07T05:30:58;15.50;99.90
40600;DHT22;26309;50.924;4.754;2023-09-07T05:33:24;15.50;99.90
40600;DHT22;26309;50.924;4.754;2023-09-07T05:35:50;15.50;99.90
40600;DHT22;26309;50.924;4.754;2023-09-07T05:38:16;15.60;99.90
40600;DHT22;26309;50.924;4.754;2023-09-07T05:40:43;15.60;99.90
40600;DHT22;26309;50.924;4.754;2023-09-07T05:43:10;15.60;99.90
40600;DHT22;26309;50.924;4.754;2023-09-07T05:45:40;15.70;99.90
40600;DHT22;26309;50.924;4.754;2023-09-07T05:48:08;16.00;99.90
40600;DHT22;26309;50.924;4.754;2023-09-07T05:50:37;16.20;99.90
40600;DHT22;26309;50.924;4.754;2023-09-07T05:53:03;16.30;99.90
40600;DHT22;26309;50.924;4.754;2023-09-07T05:55:30;16.50;99.90
40600;DHT22;26309;50.924;4.754;2023-09-07T05:57:57;16.70;99.90
40600;DHT22;26309;50.924;4.754;2023-09-07T06:00:23;16.90;99.90
40600;DHT22;26309;50.924;4.754;2023-09-07T06:02:49;17.10;99.90
40600;DHT22;26309;50.924;4.754;2023-09-07T06:05:16;17.40;99.90
40600;DHT22;26309;50.924;4.754;2023-09-07T06:07:43;17.60;99.90
40600;DHT22;26309;50.924;4.754;2023-09-07T06:10:09;17.80;99.90
40600;DHT22;26309;50.924;4.754;2023-09-07T06:12:35;18.10;99.90
40600;DHT22;26309;50.924;4.754;2023-09-07T06:15:01;18.20;99.90
40600;DHT22;26309;50.924;4.754;2023-09-07T06:17:29;18.30;99.90
40600;DHT22;26309;50.924;4.754;2023-09-07T06:19:55;18.50;99.90
40600;DHT22;26309;50.924;4.754;2023-09-07T06:22:22;18.60;99.90
40600;DHT22;26309;50.924;4.754;2023-09-07T06:24:49;18.70;99.90
40600;DHT22;26309;50.924;4.754;2023-09-07T06:27:15;18.80;99.90
40600;DHT22;26309;50.924;4.754;2023-09-07T06:29:40;18.90;99.90
40600;DHT22;26309;50.924;4.754;2023-09-07T06:32:06;19.10;99.90
40600;DHT22;26309;50.924;4.754;2023-09-07T06:34:32;19.20;99.90
40600;DHT22;26309;50.924;4.754;2023-09-07T06:37:07;19.40;99.90
40600;DHT22;26309;50.924;4.754;2023-09-07T06:39:41;19.50;99.90
40600;DHT22;26309;50.924;4.754;2023-09-07T06:42:10;19.60;99.90
40600;DHT22;26309;50.924;4.754;2023-09-07T06:44:37;19.60;99.90
40600;DHT22;26309;50.924;4.754;2023-09-07T06:47:03;19.80;99.90
40600;DHT22;26309;50.924;4.754;2023-09-07T06:49:29;19.80;99.90
40600;DHT22;26309;50.924;4.754;2023-09-07T06:51:57;19.90;99.90
40600;DHT22;26309;50.924;4.754;2023-09-07T06:54:23;19.90;99.90
40600;DHT22;26309;50.924;4.754;2023-09-07T06:56:52;19.90;99.90
40600;DHT22;26309;50.924;4.754;2023-09-07T06:59:22;19.90;99.90
40600;DHT22;26309;50.924;4.754;2023-09-07T07:01:48;20.10;99.90
40600;DHT22;26309;50.924;4.754;2023-09-07T07:04:21;20.10;99.90
40600;DHT22;26309;50.924;4.754;2023-09-07T07:06:54;20.10;99.90
40600;DHT22;26309;50.924;4.754;2023-09-07T07:09:20;20.20;99.90
40600;DHT22;26309;50.924;4.754;2023-09-07T07:11:47;20.40;99.90
40600;DHT22;26309;50.924;4.754;2023-09-07T07:14:13;20.50;99.90
40600;DHT22;26309;50.924;4.754;2023-09-07T07:16:39;20.60;99.90
40600;DHT22;26309;50.924;4.754;2023-09-07T07:19:04;20.60;99.90
40600;DHT22;26309;50.924;4.754;2023-09-07T07:21:30;20.70;99.90
40600;DHT22;26309;50.924;4.754;2023-09-07T07:23:56;20.80;99.90
40600;DHT22;26309;50.924;4.754;2023-09-07T07:26:22;21.00;99.90
40600;DHT22;26309;50.924;4.754;2023-09-07T07:28:48;21.20;99.90
40600;DHT22;26309;50.924;4.754;2023-09-07T07:31:14;21.30;99.90
40600;DHT22;26309;50.924;4.754;2023-09-07T07:33:40;21.50;99.90
40600;DHT22;26309;50.924;4.754;2023-09-07T07:36:06;21.70;99.90
40600;DHT22;26309;50.924;4.754;2023-09-07T07:38:32;21.80;99.90
40600;DHT22;26309;50.924;4.754;2023-09-07T07:40:58;21.90;99.90
40600;DHT22;26309;50.924;4.754;2023-09-07T07:43:24;22.00;99.90
40600;DHT22;26309;50.924;4.754;2023-09-07T07:45:53;22.00;99.90
40600;DHT22;26309;50.924;4.754;2023-09-07T07:48:19;22.00;99.90
40600;DHT22;26309;50.924;4.754;2023-09-07T07:50:46;22.00;99.90
40600;DHT22;26309;50.924;4.754;2023-09-07T07:53:11;22.10;99.90
40600;DHT22;26309;50.924;4.754;2023-09-07T07:55:38;22.20;99.90
40600;DHT22;26309;50.924;4.754;2023-09-07T07:58:07;22.40;99.90
40600;DHT22;26309;50.924;4.754;2023-09-07T08:00:37;22.50;99.90
40600;DHT22;26309;50.924;4.754;2023-09-07T08:03:04;22.60;99.90
40600;DHT22;26309;50.924;4.754;2023-09-07T08:05:33;22.80;99.90
40600;DHT22;26309;50.924;4.754;2023-09-07T08:08:00;23.10;99.90
40600;DHT22;26309;50.924;4.754;2023-09-07T08:10:26;23.30;99.90
40600;DHT22;26309;50.924;4.754;2023-09-07T08:12:57;23.30;99.90
40600;DHT22;26309;50.924;4.754;2023-09-07T08:15:24;23.50;99.90
40600;DHT22;26309;50.924;4.754;2023-09-07T08:17:51;23.60;99.90
40600;DHT22;26309;50.924;4.754;2023-09-07T08:20:18;23.70;99.90
40600;DHT22;26309;50.924;4.754;2023-09-07T08:22:44;23.70;99.90
40600;DHT22;26309;50.924;4.754;2023-09-07T08:25:12;23.60;99.90
40600;DHT22;26309;50.924;4.754;2023-09-07T08:27:40;23.70;99.90
40600;DHT22;26309;50.924;4.754;2023-09-07T08:30:19;23.90;99.90
40600;DHT22;26309;50.924;4.754;2023-09-07T08:32:48;24.10;99.90
40600;DHT22;26309;50.924;4.754;2023-09-07T08:35:17;24.30;99.90
40600;DHT22;26309;50.924;4.754;2023-09-07T08:37:43;24.40;99.90
40600;DHT22;26309;50.924;4.754;2023-09-07T08:40:09;24.50;99.90
40600;DHT22;26309;50.924;4.754;2023-09-07T08:42:37;24.60;99.90
40600;DHT22;26309;50.924;4.754;2023-09-07T08:45:03;24.60;99.90
40600;DHT22;26309;50.924;4.754;2023-09-07T08:47:37;24.90;99.90
40600;DHT22;26309;50.924;4.754;2023-09-07T08:50:04;24.90;99.90
40600;DHT22;26309;50.924;4.754;2023-09-07T08:52:32;25.00;99.90
40600;DHT22;26309;50.924;4.754;2023-09-07T08:54:59;25.00;99.90
40600;DHT22;26309;50.924;4.754;2023-09-07T08:57:27;25.20;99.90
40600;DHT22;26309;50.924;4.754;2023-09-07T08:59:55;25.30;99.90
40600;DHT22;26309;50.924;4.754;2023-09-07T09:02:21;25.40;99.90
40600;DHT22;26309;50.924;4.754;2023-09-07T09:04:47;25.60;99.90
40600;DHT22;26309;50.924;4.754;2023-09-07T09:07:14;25.80;99.90
40600;DHT22;26309;50.924;4.754;2023-09-07T09:09:40;25.90;99.90
40600;DHT22;26309;50.924;4.754;2023-09-07T09:12:10;26.00;99.90
40600;DHT22;26309;50.924;4.754;2023-09-07T09:14:36;26.00;99.90
40600;DHT22;26309;50.924;4.754;2023-09-07T09:17:03;26.10;99.90
40600;DHT22;26309;50.924;4.754;2023-09-07T09:19:33;26.20;99.90
40600;DHT22;26309;50.924;4.754;2023-09-07T09:21:59;26.30;99.90
40600;DHT22;26309;50.924;4.754;2023-09-07T09:24:25;26.40;99.90
40600;DHT22;26309;50.924;4.754;2023-09-07T09:26:51;26.50;99.90
40600;DHT22;26309;50.924;4.754;2023-09-07T09:29:22;26.50;99.90
40600;DHT22;26309;50.924;4.754;2023-09-07T09:31:49;26.40;99.90
40600;DHT22;26309;50.924;4.754;2023-09-07T09:34:15;26.40;99.90
40600;DHT22;26309;50.924;4.754;2023-09-07T09:36:42;26.30;99.90
40600;DHT22;26309;50.924;4.754;2023-09-07T09:39:22;26.50;99.90
40600;DHT22;26309;50.924;4.754;2023-09-07T09:41:49;26.40;99.90
40600;DHT22;26309;50.924;4.754;2023-09-07T09:44:16;26.40;99.90
40600;DHT22;26309;50.924;4.754;2023-09-07T09:46:43;26.60;99.90
40600;DHT22;26309;50.924;4.754;2023-09-07T09:49:11;26.70;99.90
40600;DHT22;26309;50.924;4.754;2023-09-07T09:51:39;26.70;99.30
40600;DHT22;26309;50.924;4.754;2023-09-07T09:54:06;26.70;98.80
40600;DHT22;26309;50.924;4.754;2023-09-07T09:56:34;26.60;98.30
40600;DHT22;26309;50.924;4.754;2023-09-07T09:59:00;26.60;99.10
40600;DHT22;26309;50.924;4.754;2023-09-07T10:01:26;26.70;98.10
40600;DHT22;26309;50.924;4.754;2023-09-07T10:04:02;26.70;97.70
40600;DHT22;26309;50.924;4.754;2023-09-07T10:06:35;26.80;98.60
40600;DHT22;26309;50.924;4.754;2023-09-07T10:09:03;27.00;98.60
40600;DHT22;26309;50.924;4.754;2023-09-07T10:11:34;27.00;98.30
40600;DHT22;26309;50.924;4.754;2023-09-07T10:14:01;27.20;97.50
40600;DHT22;26309;50.924;4.754;2023-09-07T10:16:40;27.50;97.30
40600;DHT22;26309;50.924;4.754;2023-09-07T10:19:14;27.60;97.20
40600;DHT22;26309;50.924;4.754;2023-09-07T10:21:44;27.80;96.40
40600;DHT22;26309;50.924;4.754;2023-09-07T10:24:10;27.70;95.00
40600;DHT22;26309;50.924;4.754;2023-09-07T10:26:36;27.60;94.90
40600;DHT22;26309;50.924;4.754;2023-09-07T10:29:02;27.60;96.40
40600;DHT22;26309;50.924;4.754;2023-09-07T10:31:31;27.60;94.90
40600;DHT22;26309;50.924;4.754;2023-09-07T10:34:09;27.80;95.80
40600;DHT22;26309;50.924;4.754;2023-09-07T10:36:37;28.00;94.70
40600;DHT22;26309;50.924;4.754;2023-09-07T10:39:03;28.10;95.80
40600;DHT22;26309;50.924;4.754;2023-09-07T10:41:45;28.10;95.30
40600;DHT22;26309;50.924;4.754;2023-09-07T10:44:11;28.20;94.80
40600;DHT22;26309;50.924;4.754;2023-09-07T10:46:39;28.20;94.60
40600;DHT22;26309;50.924;4.754;2023-09-07T10:49:11;28.10;94.20
40600;DHT22;26309;50.924;4.754;2023-09-07T10:51:42;28.10;94.50
40600;DHT22;26309;50.924;4.754;2023-09-07T10:54:21;28.10;95.00
40600;DHT22;26309;50.924;4.754;2023-09-07T10:56:49;28.10;95.00
40600;DHT22;26309;50.924;4.754;2023-09-07T10:59:19;28.00;94.50
40600;DHT22;26309;50.924;4.754;2023-09-07T11:01:45;28.10;97.20
40600;DHT22;26309;50.924;4.754;2023-09-07T11:04:11;28.10;93.90
40600;DHT22;26309;50.924;4.754;2023-09-07T11:06:39;28.10;95.30
40600;DHT22;26309;50.924;4.754;2023-09-07T11:09:05;28.00;94.20
40600;DHT22;26309;50.924;4.754;2023-09-07T11:11:36;28.10;95.10
40600;DHT22;26309;50.924;4.754;2023-09-07T11:14:06;28.10;94.40
40600;DHT22;26309;50.924;4.754;2023-09-07T11:16:35;28.00;95.20
40600;DHT22;26309;50.924;4.754;2023-09-07T11:19:04;28.00;94.50
40600;DHT22;26309;50.924;4.754;2023-09-07T11:21:31;27.90;94.20
40600;DHT22;26309;50.924;4.754;2023-09-07T11:24:00;28.00;94.80
40600;DHT22;26309;50.924;4.754;2023-09-07T11:26:26;28.10;94.80
40600;DHT22;26309;50.924;4.754;2023-09-07T11:28:52;28.00;93.80
40600;DHT22;26309;50.924;4.754;2023-09-07T11:31:19;27.90;94.10
40600;DHT22;26309;50.924;4.754;2023-09-07T11:33:47;27.90;94.00
40600;DHT22;26309;50.924;4.754;2023-09-07T11:36:14;27.90;94.90
40600;DHT22;26309;50.924;4.754;2023-09-07T11:38:43;28.00;93.70
40600;DHT22;26309;50.924;4.754;2023-09-07T11:41:10;28.00;94.20
40600;DHT22;26309;50.924;4.754;2023-09-07T11:43:36;28.20;94.70
40600;DHT22;26309;50.924;4.754;2023-09-07T11:46:03;28.30;94.60
40600;DHT22;26309;50.924;4.754;2023-09-07T11:48:29;28.30;94.40
40600;DHT22;26309;50.924;4.754;2023-09-07T11:50:57;28.40;94.20
40600;DHT22;26309;50.924;4.754;2023-09-07T11:53:24;28.50;93.40
40600;DHT22;26309;50.924;4.754;2023-09-07T11:55:50;28.40;94.20
40600;DHT22;26309;50.924;4.754;2023-09-07T11:58:16;28.50;95.10
40600;DHT22;26309;50.924;4.754;2023-09-07T12:00:42;28.60;97.40
40600;DHT22;26309;50.924;4.754;2023-09-07T12:03:09;28.70;95.40
40600;DHT22;26309;50.924;4.754;2023-09-07T12:05:35;28.60;95.60
40600;DHT22;26309;50.924;4.754;2023-09-07T12:08:03;28.80;94.90
40600;DHT22;26309;50.924;4.754;2023-09-07T12:10:29;28.80;94.30
40600;DHT22;26309;50.924;4.754;2023-09-07T12:12:55;28.80;94.10
40600;DHT22;26309;50.924;4.754;2023-09-07T12:15:21;28.60;94.10
40600;DHT22;26309;50.924;4.754;2023-09-07T12:17:47;28.60;94.20
40600;DHT22;26309;50.924;4.754;2023-09-07T12:20:15;28.50;94.20
40600;DHT22;26309;50.924;4.754;2023-09-07T12:22:41;28.50;93.90
40600;DHT22;26309;50.924;4.754;2023-09-07T12:25:07;28.50;93.70
40600;DHT22;26309;50.924;4.754;2023-09-07T12:27:34;28.80;93.40
40600;DHT22;26309;50.924;4.754;2023-09-07T12:30:01;28.90;93.50
40600;DHT22;26309;50.924;4.754;2023-09-07T12:32:28;28.90;93.00
40600;DHT22;26309;50.924;4.754;2023-09-07T12:34:54;29.00;93.40
40600;DHT22;26309;50.924;4.754;2023-09-07T12:37:20;29.00;93.20
40600;DHT22;26309;50.924;4.754;2023-09-07T12:39:49;29.10;93.40
40600;DHT22;26309;50.924;4.754;2023-09-07T12:42:16;29.00;92.80
40600;DHT22;26309;50.924;4.754;2023-09-07T12:44:41;29.10;94.00
40600;DHT22;26309;50.924;4.754;2023-09-07T12:47:07;29.10;92.20
40600;DHT22;26309;50.924;4.754;2023-09-07T12:49:33;28.90;92.60
40600;DHT22;26309;50.924;4.754;2023-09-07T12:51:59;28.90;92.40
40600;DHT22;26309;50.924;4.754;2023-09-07T12:54:25;28.90;93.00
40600;DHT22;26309;50.924;4.754;2023-09-07T12:56:52;29.00;92.80
40600;DHT22;26309;50.924;4.754;2023-09-07T12:59:18;29.00;92.40
40600;DHT22;26309;50.924;4.754;2023-09-07T13:01:44;29.10;92.30
40600;DHT22;26309;50.924;4.754;2023-09-07T13:04:10;29.30;91.90
40600;DHT22;26309;50.924;4.754;2023-09-07T13:06:37;29.40;93.40
40600;DHT22;26309;50.924;4.754;2023-09-07T13:09:06;29.50;91.80
40600;DHT22;26309;50.924;4.754;2023-09-07T13:11:33;29.40;91.80
40600;DHT22;26309;50.924;4.754;2023-09-07T13:14:05;29.40;92.00
40600;DHT22;26309;50.924;4.754;2023-09-07T13:16:36;29.50;92.50
40600;DHT22;26309;50.924;4.754;2023-09-07T13:19:02;29.40;92.30
40600;DHT22;26309;50.924;4.754;2023-09-07T13:21:28;29.40;93.00
40600;DHT22;26309;50.924;4.754;2023-09-07T13:23:54;29.50;92.80
40600;DHT22;26309;50.924;4.754;2023-09-07T13:26:20;29.60;92.10
40600;DHT22;26309;50.924;4.754;2023-09-07T13:28:46;29.70;92.10
40600;DHT22;26309;50.924;4.754;2023-09-07T13:31:12;29.80;93.20
40600;DHT22;26309;50.924;4.754;2023-09-07T13:33:38;29.90;93.00
40600;DHT22;26309;50.924;4.754;2023-09-07T13:36:04;29.80;92.80
40600;DHT22;26309;50.924;4.754;2023-09-07T13:38:30;29.70;93.50
40600;DHT22;26309;50.924;4.754;2023-09-07T13:40:56;29.80;93.20
40600;DHT22;26309;50.924;4.754;2023-09-07T13:43:22;29.80;92.80
40600;DHT22;26309;50.924;4.754;2023-09-07T13:45:48;29.80;92.20
40600;DHT22;26309;50.924;4.754;2023-09-07T13:48:14;29.80;92.80
40600;DHT22;26309;50.924;4.754;2023-09-07T13:50:40;29.90;92.40
40600;DHT22;26309;50.924;4.754;2023-09-07T13:53:06;29.90;91.50
40600;DHT22;26309;50.924;4.754;2023-09-07T13:55:31;29.80;92.00
40600;DHT22;26309;50.924;4.754;2023-09-07T13:57:57;29.90;91.50
40600;DHT22;26309;50.924;4.754;2023-09-07T14:00:23;29.70;92.70
40600;DHT22;26309;50.924;4.754;2023-09-07T14:02:49;29.80;92.90
40600;DHT22;26309;50.924;4.754;2023-09-07T14:05:15;29.80;92.60
40600;DHT22;26309;50.924;4.754;2023-09-07T14:07:41;29.70;93.00
40600;DHT22;26309;50.924;4.754;2023-09-07T14:10:07;29.80;92.80
40600;DHT22;26309;50.924;4.754;2023-09-07T14:12:33;29.90;92.90
40600;DHT22;26309;50.924;4.754;2023-09-07T14:14:59;29.90;93.10
40600;DHT22;26309;50.924;4.754;2023-09-07T14:17:28;30.20;92.10
40600;DHT22;26309;50.924;4.754;2023-09-07T14:19:54;30.40;91.40
40600;DHT22;26309;50.924;4.754;2023-09-07T14:22:20;30.80;91.70
40600;DHT22;26309;50.924;4.754;2023-09-07T14:24:47;31.20;90.60
40600;DHT22;26309;50.924;4.754;2023-09-07T14:27:13;31.60;90.60
40600;DHT22;26309;50.924;4.754;2023-09-07T14:29:40;31.90;90.60
40600;DHT22;26309;50.924;4.754;2023-09-07T14:32:06;32.40;89.80
40600;DHT22;26309;50.924;4.754;2023-09-07T14:34:32;32.90;90.30
40600;DHT22;26309;50.924;4.754;2023-09-07T14:36:58;33.20;85.40
40600;DHT22;26309;50.924;4.754;2023-09-07T14:39:24;33.30;83.00
40600;DHT22;26309;50.924;4.754;2023-09-07T14:41:51;33.40;82.20
40600;DHT22;26309;50.924;4.754;2023-09-07T14:44:19;33.30;81.70
40600;DHT22;26309;50.924;4.754;2023-09-07T14:46:45;33.00;83.30
40600;DHT22;26309;50.924;4.754;2023-09-07T14:49:15;33.40;84.30
40600;DHT22;26309;50.924;4.754;2023-09-07T14:51:43;33.90;83.40
40600;DHT22;26309;50.924;4.754;2023-09-07T14:54:09;34.30;83.40
40600;DHT22;26309;50.924;4.754;2023-09-07T14:56:35;34.50;80.20
40600;DHT22;26309;50.924;4.754;2023-09-07T14:59:01;34.30;83.50
40600;DHT22;26309;50.924;4.754;2023-09-07T15:01:27;34.50;80.80
40600;DHT22;26309;50.924;4.754;2023-09-07T15:03:53;34.90;81.30
40600;DHT22;26309;50.924;4.754;2023-09-07T15:06:19;35.40;81.80
40600;DHT22;26309;50.924;4.754;2023-09-07T15:08:45;35.50;78.00
40600;DHT22;26309;50.924;4.754;2023-09-07T15:11:13;35.10;79.30
40600;DHT22;26309;50.924;4.754;2023-09-07T15:13:39;35.30;80.00
40600;DHT22;26309;50.924;4.754;2023-09-07T15:16:05;35.50;78.70
40600;DHT22;26309;50.924;4.754;2023-09-07T15:18:34;35.80;77.10
40600;DHT22;26309;50.924;4.754;2023-09-07T15:21:00;36.20;79.30
40600;DHT22;26309;50.924;4.754;2023-09-07T15:23:27;36.30;73.80
40600;DHT22;26309;50.924;4.754;2023-09-07T15:25:54;36.30;74.30
40600;DHT22;26309;50.924;4.754;2023-09-07T15:28:20;36.30;74.00